sensor_id;sensor_type;location;lat;lon;timestamp;temperature;humidity
43099;DHT22;28715;51.988;6.020;2022-11-03T00:01:37;12.70;94.30
43099;DHT22;28715;51.988;6.020;2022-11-03T00:04:05;12.70;94.40
43099;DHT22;28715;51.988;6.020;2022-11-03T00:06:31;12.70;94.50
43099;DHT22;28715;51.988;6.020;2022-11-03T00:08:58;12.70;94.50
43099;DHT22;28715;51.988;6.020;2022-11-03T00:11:24;12.70;94.60
43099;DHT22;28715;51.988;6.020;2022-11-03T00:13:50;12.60;94.60
43099;DHT22;28715;51.988;6.020;2022-11-03T00:16:16;12.60;94.70
43099;DHT22;28715;51.988;6.020;2022-11-03T00:18:41;12.60;94.80
43099;DHT22;28715;51.988;6.020;2022-11-03T00:21:09;12.60;94.90
43099;DHT22;28715;51.988;6.020;2022-11-03T00:23:40;12.60;94.90
43099;DHT22;28715;51.988;6.020;2022-11-03T00:26:10;12.60;94.90
43099;DHT22;28715;51.988;6.020;2022-11-03T00:28:37;12.50;94.90
43099;DHT22;28715;51.988;6.020;2022-11-03T00:31:12;12.60;95.00
43099;DHT22;28715;51.988;6.020;2022-11-03T00:33:38;12.60;95.00
43099;DHT22;28715;51.988;6.020;2022-11-03T00:36:05;12.70;95.00
43099;DHT22;28715;51.988;6.020;2022-11-03T00:38:31;12.70;95.00
43099;DHT22;28715;51.988;6.020;2022-11-03T00:40:59;12.70;95.00
43099;DHT22;28715;51.988;6.020;2022-11-03T00:43:26;12.70;95.00
43099;DHT22;28715;51.988;6.020;2022-11-03T00:45:52;12.70;95.00
43099;DHT22;28715;51.988;6.020;2022-11-03T00:48:19;12.70;95.00
43099;DHT22;28715;51.988;6.020;2022-11-03T00:53:29;12.70;95.00
43099;DHT22;28715;51.988;6.020;2022-11-03T00:55:55;12.70;95.00
43099;DHT22;28715;51.988;6.020;2022-11-03T00:58:21;12.70;95.00
43099;DHT22;28715;51.988;6.020;2022-11-03T01:00:47;12.70;95.00
43099;DHT22;28715;51.988;6.020;2022-11-03T01:03:12;12.70;95.00
43099;DHT22;28715;51.988;6.020;2022-11-03T01:05:42;12.70;95.00
43099;DHT22;28715;51.988;6.020;2022-11-03T01:08:34;12.70;95.00
43099;DHT22;28715;51.988;6.020;2022-11-03T01:11:11;12.70;95.00
43099;DHT22;28715;51.988;6.020;2022-11-03T01:13:56;12.70;95.00
43099;DHT22;28715;51.988;6.020;2022-11-03T01:16:22;12.70;95.00
43099;DHT22;28715;51.988;6.020;2022-11-03T01:18:48;12.70;95.00
43099;DHT22;28715;51.988;6.020;2022-11-03T01:21:17;12.70;95.00
43099;DHT22;28715;51.988;6.020;2022-11-03T01:23:43;12.70;95.00
43099;DHT22;28715;51.988;6.020;2022-11-03T01:26:11;12.70;95.00
43099;DHT22;28715;51.988;6.020;2022-11-03T01:28:39;12.70;95.00
43099;DHT22;28715;51.988;6.020;2022-11-03T01:31:06;12.70;95.10
43099;DHT22;28715;51.988;6.020;2022-11-03T01:33:33;12.70;95.10
43099;DHT22;28715;51.988;6.020;2022-11-03T01:35:59;12.60;95.10
43099;DHT22;28715;51.988;6.020;2022-11-03T01:38:25;12.60;95.10
43099;DHT22;28715;51.988;6.020;2022-11-03T01:40:50;12.70;95.10
43099;DHT22;28715;51.988;6.020;2022-11-03T01:43:21;12.70;95.20
43099;DHT22;28715;51.988;6.020;2022-11-03T01:45:50;12.60;95.10
43099;DHT22;28715;51.988;6.020;2022-11-03T01:48:17;12.60;95.10
43099;DHT22;28715;51.988;6.020;2022-11-03T01:50:46;12.70;95.20
43099;DHT22;28715;51.988;6.020;2022-11-03T01:53:14;12.60;95.20
43099;DHT22;28715;51.988;6.020;2022-11-03T01:55:40;12.60;95.30
43099;DHT22;28715;51.988;6.020;2022-11-03T01:58:11;12.60;95.30
43099;DHT22;28715;51.988;6.020;2022-11-03T02:00:41;12.60;95.40
43099;DHT22;28715;51.988;6.020;2022-11-03T02:03:07;12.50;95.40
43099;DHT22;28715;51.988;6.020;2022-11-03T02:05:32;12.60;95.40
43099;DHT22;28715;51.988;6.020;2022-11-03T02:08:08;12.60;95.50
43099;DHT22;28715;51.988;6.020;2022-11-03T02:10:36;12.60;95.50
43099;DHT22;28715;51.988;6.020;2022-11-03T02:13:09;12.60;95.50
43099;DHT22;28715;51.988;6.020;2022-11-03T02:15:37;12.60;95.50
43099;DHT22;28715;51.988;6.020;2022-11-03T02:18:04;12.60;95.50
43099;DHT22;28715;51.988;6.020;2022-11-03T02:20:31;12.60;95.50
43099;DHT22;28715;51.988;6.020;2022-11-03T02:25:53;12.60;95.50
43099;DHT22;28715;51.988;6.020;2022-11-03T02:28:23;12.70;95.40
43099;DHT22;28715;51.988;6.020;2022-11-03T02:31:33;12.70;95.40
43099;DHT22;28715;51.988;6.020;2022-11-03T02:37:11;12.60;95.50
43099;DHT22;28715;51.988;6.020;2022-11-03T02:39:46;12.60;95.50
43099;DHT22;28715;51.988;6.020;2022-11-03T02:42:13;12.60;95.50
43099;DHT22;28715;51.988;6.020;2022-11-03T02:44:41;12.60;95.50
43099;DHT22;28715;51.988;6.020;2022-11-03T02:47:10;12.60;95.50
43099;DHT22;28715;51.988;6.020;2022-11-03T02:49:38;12.60;95.40
43099;DHT22;28715;51.988;6.020;2022-11-03T02:52:05;12.60;95.40
43099;DHT22;28715;51.988;6.020;2022-11-03T02:57:10;12.60;95.50
43099;DHT22;28715;51.988;6.020;2022-11-03T02:59:59;12.60;95.50
43099;DHT22;28715;51.988;6.020;2022-11-03T03:02:37;12.60;95.60
43099;DHT22;28715;51.988;6.020;2022-11-03T03:05:07;12.50;95.50
43099;DHT22;28715;51.988;6.020;2022-11-03T03:07:36;12.60;95.60
43099;DHT22;28715;51.988;6.020;2022-11-03T03:10:17;12.50;95.60
43099;DHT22;28715;51.988;6.020;2022-11-03T03:12:50;12.60;95.70
43099;DHT22;28715;51.988;6.020;2022-11-03T03:15:17;12.60;95.60
43099;DHT22;28715;51.988;6.020;2022-11-03T03:17:49;12.60;95.60
43099;DHT22;28715;51.988;6.020;2022-11-03T03:20:59;12.60;95.60
43099;DHT22;28715;51.988;6.020;2022-11-03T03:23:19;12.60;95.50
43099;DHT22;28715;51.988;6.020;2022-11-03T03:25:57;12.60;95.50
43099;DHT22;28715;51.988;6.020;2022-11-03T03:28:36;12.60;95.50
43099;DHT22;28715;51.988;6.020;2022-11-03T03:31:05;12.70;95.50
43099;DHT22;28715;51.988;6.020;2022-11-03T03:33:33;12.60;95.40
43099;DHT22;28715;51.988;6.020;2022-11-03T03:36:01;12.70;95.40
43099;DHT22;28715;51.988;6.020;2022-11-03T03:38:32;12.70;95.70
43099;DHT22;28715;51.988;6.020;2022-11-03T03:40:59;12.70;95.40
43099;DHT22;28715;51.988;6.020;2022-11-03T03:43:27;12.60;95.40
43099;DHT22;28715;51.988;6.020;2022-11-03T03:45:57;12.70;95.40
43099;DHT22;28715;51.988;6.020;2022-11-03T03:48:24;12.70;95.40
43099;DHT22;28715;51.988;6.020;2022-11-03T03:50:49;12.70;95.40
43099;DHT22;28715;51.988;6.020;2022-11-03T03:53:17;12.60;95.40
43099;DHT22;28715;51.988;6.020;2022-11-03T03:55:49;12.60;95.40
43099;DHT22;28715;51.988;6.020;2022-11-03T03:58:15;12.70;95.40
43099;DHT22;28715;51.988;6.020;2022-11-03T04:00:41;12.70;95.40
43099;DHT22;28715;51.988;6.020;2022-11-03T04:03:19;12.70;95.50
43099;DHT22;28715;51.988;6.020;2022-11-03T04:05:45;12.70;95.50
43099;DHT22;28715;51.988;6.020;2022-11-03T04:08:11;12.70;95.50
43099;DHT22;28715;51.988;6.020;2022-11-03T04:10:37;12.70;95.40
43099;DHT22;28715;51.988;6.020;2022-11-03T04:13:04;12.70;95.50
43099;DHT22;28715;51.988;6.020;2022-11-03T04:15:48;12.60;95.60
43099;DHT22;28715;51.988;6.020;2022-11-03T04:18:18;12.60;95.60
43099;DHT22;28715;51.988;6.020;2022-11-03T04:21:03;12.60;95.60
43099;DHT22;28715;51.988;6.020;2022-11-03T04:23:47;12.70;95.70
43099;DHT22;28715;51.988;6.020;2022-11-03T04:26:17;12.70;95.60
43099;DHT22;28715;51.988;6.020;2022-11-03T04:28:44;12.70;95.70
43099;DHT22;28715;51.988;6.020;2022-11-03T04:31:11;12.70;95.70
43099;DHT22;28715;51.988;6.020;2022-11-03T04:33:37;12.70;95.60
43099;DHT22;28715;51.988;6.020;2022-11-03T04:36:11;12.70;95.60
43099;DHT22;28715;51.988;6.020;2022-11-03T04:38:38;12.70;95.70
43099;DHT22;28715;51.988;6.020;2022-11-03T04:41:26;12.70;95.70
43099;DHT22;28715;51.988;6.020;2022-11-03T04:43:53;12.70;95.70
43099;DHT22;28715;51.988;6.020;2022-11-03T04:46:28;12.70;95.70
43099;DHT22;28715;51.988;6.020;2022-11-03T04:48:58;12.80;95.70
43099;DHT22;28715;51.988;6.020;2022-11-03T04:51:27;12.80;95.70
43099;DHT22;28715;51.988;6.020;2022-11-03T04:53:57;12.80;95.70
43099;DHT22;28715;51.988;6.020;2022-11-03T04:56:24;12.80;95.60
43099;DHT22;28715;51.988;6.020;2022-11-03T04:58:51;12.90;95.50
43099;DHT22;28715;51.988;6.020;2022-11-03T05:01:20;12.90;95.40
43099;DHT22;28715;51.988;6.020;2022-11-03T05:03:48;12.90;95.50
43099;DHT22;28715;51.988;6.020;2022-11-03T05:06:20;12.90;95.50
43099;DHT22;28715;51.988;6.020;2022-11-03T05:08:49;12.90;95.50
43099;DHT22;28715;51.988;6.020;2022-11-03T05:13:49;12.90;95.40
43099;DHT22;28715;51.988;6.020;2022-11-03T05:16:16;12.90;95.40
43099;DHT22;28715;51.988;6.020;2022-11-03T05:18:43;12.90;95.30
43099;DHT22;28715;51.988;6.020;2022-11-03T05:21:13;12.90;95.30
43099;DHT22;28715;51.988;6.020;2022-11-03T05:23:43;12.90;95.40
43099;DHT22;28715;51.988;6.020;2022-11-03T05:26:28;12.90;95.40
43099;DHT22;28715;51.988;6.020;2022-11-03T05:28:58;12.90;95.40
43099;DHT22;28715;51.988;6.020;2022-11-03T05:31:30;12.90;95.50
43099;DHT22;28715;51.988;6.020;2022-11-03T05:33:58;12.90;95.60
43099;DHT22;28715;51.988;6.020;2022-11-03T05:36:26;12.90;95.60
43099;DHT22;28715;51.988;6.020;2022-11-03T05:38:57;12.90;95.60
43099;DHT22;28715;51.988;6.020;2022-11-03T05:41:28;12.90;95.70
43099;DHT22;28715;51.988;6.020;2022-11-03T05:43:58;12.90;95.80
43099;DHT22;28715;51.988;6.020;2022-11-03T05:46:27;12.90;95.90
43099;DHT22;28715;51.988;6.020;2022-11-03T05:48:53;12.90;95.90
43099;DHT22;28715;51.988;6.020;2022-11-03T05:51:24;12.90;95.90
43099;DHT22;28715;51.988;6.020;2022-11-03T05:53:55;12.90;95.90
43099;DHT22;28715;51.988;6.020;2022-11-03T05:56:23;12.90;96.00
43099;DHT22;28715;51.988;6.020;2022-11-03T05:58:51;12.90;96.00
43099;DHT22;28715;51.988;6.020;2022-11-03T06:01:27;12.90;96.00
43099;DHT22;28715;51.988;6.020;2022-11-03T06:03:53;12.90;96.00
43099;DHT22;28715;51.988;6.020;2022-11-03T06:06:49;13.00;96.00
43099;DHT22;28715;51.988;6.020;2022-11-03T06:09:20;13.00;96.30
43099;DHT22;28715;51.988;6.020;2022-11-03T06:11:46;13.00;95.90
43099;DHT22;28715;51.988;6.020;2022-11-03T06:14:17;13.00;95.90
43099;DHT22;28715;51.988;6.020;2022-11-03T06:16:46;13.00;96.20
43099;DHT22;28715;51.988;6.020;2022-11-03T06:19:20;13.00;95.90
43099;DHT22;28715;51.988;6.020;2022-11-03T06:21:48;13.00;96.00
43099;DHT22;28715;51.988;6.020;2022-11-03T06:24:15;13.00;95.90
43099;DHT22;28715;51.988;6.020;2022-11-03T06:26:42;13.00;96.20
43099;DHT22;28715;51.988;6.020;2022-11-03T06:29:13;13.00;95.90
43099;DHT22;28715;51.988;6.020;2022-11-03T06:31:39;13.00;96.00
43099;DHT22;28715;51.988;6.020;2022-11-03T06:36:52;13.00;96.00
43099;DHT22;28715;51.988;6.020;2022-11-03T06:39:22;13.00;96.10
43099;DHT22;28715;51.988;6.020;2022-11-03T06:41:48;13.00;96.10
43099;DHT22;28715;51.988;6.020;2022-11-03T06:44:40;13.00;96.10
43099;DHT22;28715;51.988;6.020;2022-11-03T06:47:27;13.00;96.10
43099;DHT22;28715;51.988;6.020;2022-11-03T06:49:58;12.90;96.20
43099;DHT22;28715;51.988;6.020;2022-11-03T06:52:32;12.90;96.50
43099;DHT22;28715;51.988;6.020;2022-11-03T06:57:37;12.90;96.30
43099;DHT22;28715;51.988;6.020;2022-11-03T07:00:20;12.80;96.40
43099;DHT22;28715;51.988;6.020;2022-11-03T07:02:56;12.80;96.50
43099;DHT22;28715;51.988;6.020;2022-11-03T07:05:26;12.80;96.60
43099;DHT22;28715;51.988;6.020;2022-11-03T07:07:54;12.80;96.60
43099;DHT22;28715;51.988;6.020;2022-11-03T07:10:24;12.80;96.70
43099;DHT22;28715;51.988;6.020;2022-11-03T07:12:50;12.80;96.70
43099;DHT22;28715;51.988;6.020;2022-11-03T07:15:25;12.80;96.80
43099;DHT22;28715;51.988;6.020;2022-11-03T07:17:52;12.80;96.90
43099;DHT22;28715;51.988;6.020;2022-11-03T07:20:18;12.80;96.90
43099;DHT22;28715;51.988;6.020;2022-11-03T07:22:45;12.80;96.90
43099;DHT22;28715;51.988;6.020;2022-11-03T07:25:18;12.90;97.00
43099;DHT22;28715;51.988;6.020;2022-11-03T07:27:51;12.80;97.10
43099;DHT22;28715;51.988;6.020;2022-11-03T07:30:20;12.90;97.10
43099;DHT22;28715;51.988;6.020;2022-11-03T07:32:53;12.90;97.10
43099;DHT22;28715;51.988;6.020;2022-11-03T07:35:31;13.00;97.10
43099;DHT22;28715;51.988;6.020;2022-11-03T07:38:01;13.00;97.10
43099;DHT22;28715;51.988;6.020;2022-11-03T07:40:28;13.00;97.10
43099;DHT22;28715;51.988;6.020;2022-11-03T07:42:58;13.00;97.10
43099;DHT22;28715;51.988;6.020;2022-11-03T07:45:42;13.10;97.10
43099;DHT22;28715;51.988;6.020;2022-11-03T07:48:24;13.10;97.00
43099;DHT22;28715;51.988;6.020;2022-11-03T07:50:52;13.20;97.00
43099;DHT22;28715;51.988;6.020;2022-11-03T07:53:37;13.20;97.00
43099;DHT22;28715;51.988;6.020;2022-11-03T07:56:25;13.30;97.00
43099;DHT22;28715;51.988;6.020;2022-11-03T07:59:04;13.20;97.00
43099;DHT22;28715;51.988;6.020;2022-11-03T08:01:51;13.30;96.90
43099;DHT22;28715;51.988;6.020;2022-11-03T08:04:29;13.30;96.90
43099;DHT22;28715;51.988;6.020;2022-11-03T08:06:55;13.40;96.90
43099;DHT22;28715;51.988;6.020;2022-11-03T08:09:20;13.40;96.80
43099;DHT22;28715;51.988;6.020;2022-11-03T08:11:46;13.40;96.70
43099;DHT22;28715;51.988;6.020;2022-11-03T08:14:12;13.50;96.80
43099;DHT22;28715;51.988;6.020;2022-11-03T08:16:38;13.50;96.80
43099;DHT22;28715;51.988;6.020;2022-11-03T08:19:04;13.50;96.70
43099;DHT22;28715;51.988;6.020;2022-11-03T08:21:30;13.50;96.70
43099;DHT22;28715;51.988;6.020;2022-11-03T08:23:55;13.60;96.70
43099;DHT22;28715;51.988;6.020;2022-11-03T08:26:21;13.60;96.60
43099;DHT22;28715;51.988;6.020;2022-11-03T08:28:47;13.60;96.70
43099;DHT22;28715;51.988;6.020;2022-11-03T08:31:12;13.60;96.60
43099;DHT22;28715;51.988;6.020;2022-11-03T08:33:38;13.60;96.50
43099;DHT22;28715;51.988;6.020;2022-11-03T08:36:04;13.60;96.50
43099;DHT22;28715;51.988;6.020;2022-11-03T08:38:30;13.70;96.50
43099;DHT22;28715;51.988;6.020;2022-11-03T08:40:56;13.70;96.50
43099;DHT22;28715;51.988;6.020;2022-11-03T08:43:23;13.80;96.50
43099;DHT22;28715;51.988;6.020;2022-11-03T08:45:50;13.80;96.40
43099;DHT22;28715;51.988;6.020;2022-11-03T08:48:21;13.80;96.30
43099;DHT22;28715;51.988;6.020;2022-11-03T08:50:48;13.80;96.30
43099;DHT22;28715;51.988;6.020;2022-11-03T08:53:15;13.80;96.30
43099;DHT22;28715;51.988;6.020;2022-11-03T08:55:41;13.80;96.30
43099;DHT22;28715;51.988;6.020;2022-11-03T08:58:07;13.90;96.30
43099;DHT22;28715;51.988;6.020;2022-11-03T09:00:32;13.90;96.20
43099;DHT22;28715;51.988;6.020;2022-11-03T09:02:59;13.90;96.20
43099;DHT22;28715;51.988;6.020;2022-11-03T09:05:25;14.00;96.10
43099;DHT22;28715;51.988;6.020;2022-11-03T09:07:51;14.00;96.40
43099;DHT22;28715;51.988;6.020;2022-11-03T09:10:16;14.10;96.00
43099;DHT22;28715;51.988;6.020;2022-11-03T09:12:42;14.00;95.90
43099;DHT22;28715;51.988;6.020;2022-11-03T09:15:08;14.10;95.90
43099;DHT22;28715;51.988;6.020;2022-11-03T09:17:34;14.10;95.80
43099;DHT22;28715;51.988;6.020;2022-11-03T09:19:59;14.20;95.80
43099;DHT22;28715;51.988;6.020;2022-11-03T09:22:25;14.30;95.70
43099;DHT22;28715;51.988;6.020;2022-11-03T09:24:50;14.30;95.60
43099;DHT22;28715;51.988;6.020;2022-11-03T09:27:16;14.30;95.50
43099;DHT22;28715;51.988;6.020;2022-11-03T09:29:42;14.30;95.40
43099;DHT22;28715;51.988;6.020;2022-11-03T09:32:07;14.40;95.40
43099;DHT22;28715;51.988;6.020;2022-11-03T09:34:33;14.40;95.40
43099;DHT22;28715;51.988;6.020;2022-11-03T09:36:59;14.50;95.20
43099;DHT22;28715;51.988;6.020;2022-11-03T09:39:24;14.50;95.20
43099;DHT22;28715;51.988;6.020;2022-11-03T09:41:50;14.60;95.20
43099;DHT22;28715;51.988;6.020;2022-11-03T09:44:16;14.60;95.10
43099;DHT22;28715;51.988;6.020;2022-11-03T09:46:42;14.70;94.90
43099;DHT22;28715;51.988;6.020;2022-11-03T09:49:15;14.80;94.80
43099;DHT22;28715;51.988;6.020;2022-11-03T09:51:41;14.90;94.60
43099;DHT22;28715;51.988;6.020;2022-11-03T09:54:11;15.00;94.50
43099;DHT22;28715;51.988;6.020;2022-11-03T09:56:38;15.10;94.30
43099;DHT22;28715;51.988;6.020;2022-11-03T09:59:17;15.10;94.00
43099;DHT22;28715;51.988;6.020;2022-11-03T10:01:44;15.10;94.00
43099;DHT22;28715;51.988;6.020;2022-11-03T10:04:12;15.10;94.10
43099;DHT22;28715;51.988;6.020;2022-11-03T10:06:38;15.10;94.00
43099;DHT22;28715;51.988;6.020;2022-11-03T10:09:05;15.20;93.90
43099;DHT22;28715;51.988;6.020;2022-11-03T10:11:33;15.20;93.80
43099;DHT22;28715;51.988;6.020;2022-11-03T10:13:59;15.20;93.80
43099;DHT22;28715;51.988;6.020;2022-11-03T10:16:25;15.10;93.70
43099;DHT22;28715;51.988;6.020;2022-11-03T10:18:51;15.20;93.70
43099;DHT22;28715;51.988;6.020;2022-11-03T10:21:29;15.20;93.80
43099;DHT22;28715;51.988;6.020;2022-11-03T10:23:55;15.30;93.80
43099;DHT22;28715;51.988;6.020;2022-11-03T10:26:21;15.30;93.50
43099;DHT22;28715;51.988;6.020;2022-11-03T10:28:58;15.30;93.40
43099;DHT22;28715;51.988;6.020;2022-11-03T10:31:39;15.30;93.10
43099;DHT22;28715;51.988;6.020;2022-11-03T10:37:18;15.30;93.20
43099;DHT22;28715;51.988;6.020;2022-11-03T10:39:48;15.30;93.00
43099;DHT22;28715;51.988;6.020;2022-11-03T10:42:20;15.20;92.90
43099;DHT22;28715;51.988;6.020;2022-11-03T10:44:47;15.20;93.00
43099;DHT22;28715;51.988;6.020;2022-11-03T10:47:32;15.20;93.10
43099;DHT22;28715;51.988;6.020;2022-11-03T10:52:43;15.20;93.20
43099;DHT22;28715;51.988;6.020;2022-11-03T10:55:08;15.20;93.30
43099;DHT22;28715;51.988;6.020;2022-11-03T10:57:34;15.20;93.30
43099;DHT22;28715;51.988;6.020;2022-11-03T11:00:00;15.10;93.60
43099;DHT22;28715;51.988;6.020;2022-11-03T11:02:29;15.10;93.50
43099;DHT22;28715;51.988;6.020;2022-11-03T11:05:01;15.10;93.60
43099;DHT22;28715;51.988;6.020;2022-11-03T11:07:39;15.10;93.30
43099;DHT22;28715;51.988;6.020;2022-11-03T11:10:20;15.20;93.20
43099;DHT22;28715;51.988;6.020;2022-11-03T11:13:03;15.20;93.40
43099;DHT22;28715;51.988;6.020;2022-11-03T11:15:47;15.10;93.20
43099;DHT22;28715;51.988;6.020;2022-11-03T11:23:43;15.10;93.30
43099;DHT22;28715;51.988;6.020;2022-11-03T11:28:45;15.20;93.20
43099;DHT22;28715;51.988;6.020;2022-11-03T11:31:30;15.20;93.30
43099;DHT22;28715;51.988;6.020;2022-11-03T11:36:44;15.30;92.80
43099;DHT22;28715;51.988;6.020;2022-11-03T11:47:24;15.60;92.30
43099;DHT22;28715;51.988;6.020;2022-11-03T11:52:32;15.70;92.40
43099;DHT22;28715;51.988;6.020;2022-11-03T11:54:58;15.70;92.20
43099;DHT22;28715;51.988;6.020;2022-11-03T11:57:24;15.80;92.10
43099;DHT22;28715;51.988;6.020;2022-11-03T11:59:50;15.80;92.20
43099;DHT22;28715;51.988;6.020;2022-11-03T12:02:22;15.90;92.10
43099;DHT22;28715;51.988;6.020;2022-11-03T12:04:57;16.10;91.90
43099;DHT22;28715;51.988;6.020;2022-11-03T12:07:32;16.20;91.60
43099;DHT22;28715;51.988;6.020;2022-11-03T12:10:27;16.30;91.20
43099;DHT22;28715;51.988;6.020;2022-11-03T12:12:54;16.30;91.40
43099;DHT22;28715;51.988;6.020;2022-11-03T12:15:54;16.30;90.80
43099;DHT22;28715;51.988;6.020;2022-11-03T12:18:39;16.30;91.00
43099;DHT22;28715;51.988;6.020;2022-11-03T12:21:13;16.30;90.60
43099;DHT22;28715;51.988;6.020;2022-11-03T12:23:57;16.30;90.70
43099;DHT22;28715;51.988;6.020;2022-11-03T12:28:51;16.20;90.80
43099;DHT22;28715;51.988;6.020;2022-11-03T12:31:17;16.20;91.10
43099;DHT22;28715;51.988;6.020;2022-11-03T12:33:43;16.20;91.20
43099;DHT22;28715;51.988;6.020;2022-11-03T12:36:08;16.20;91.20
43099;DHT22;28715;51.988;6.020;2022-11-03T12:38:34;16.30;91.20
43099;DHT22;28715;51.988;6.020;2022-11-03T12:41:00;16.40;91.10
43099;DHT22;28715;51.988;6.020;2022-11-03T12:43:48;16.50;91.00
43099;DHT22;28715;51.988;6.020;2022-11-03T12:46:15;16.50;91.20
43099;DHT22;28715;51.988;6.020;2022-11-03T12:48:41;16.50;90.60
43099;DHT22;28715;51.988;6.020;2022-11-03T12:51:10;16.50;90.50
43099;DHT22;28715;51.988;6.020;2022-11-03T12:53:36;16.50;90.60
43099;DHT22;28715;51.988;6.020;2022-11-03T12:56:01;16.60;90.60
43099;DHT22;28715;51.988;6.020;2022-11-03T12:58:27;16.60;90.30
43099;DHT22;28715;51.988;6.020;2022-11-03T13:00:52;16.60;90.40
43099;DHT22;28715;51.988;6.020;2022-11-03T13:03:18;16.60;90.50
43099;DHT22;28715;51.988;6.020;2022-11-03T13:05:43;16.70;90.10
43099;DHT22;28715;51.988;6.020;2022-11-03T13:08:09;16.60;90.30
43099;DHT22;28715;51.988;6.020;2022-11-03T13:10:34;16.70;90.50
43099;DHT22;28715;51.988;6.020;2022-11-03T13:13:00;16.70;90.20
43099;DHT22;28715;51.988;6.020;2022-11-03T13:15:25;16.80;90.10
43099;DHT22;28715;51.988;6.020;2022-11-03T13:17:51;16.70;90.10
43099;DHT22;28715;51.988;6.020;2022-11-03T13:20:16;16.70;90.20
43099;DHT22;28715;51.988;6.020;2022-11-03T13:22:42;16.70;90.00
43099;DHT22;28715;51.988;6.020;2022-11-03T13:25:08;16.80;90.00
43099;DHT22;28715;51.988;6.020;2022-11-03T13:27:34;16.80;90.00
43099;DHT22;28715;51.988;6.020;2022-11-03T13:29:59;16.70;90.00
43099;DHT22;28715;51.988;6.020;2022-11-03T13:32:25;16.80;90.10
43099;DHT22;28715;51.988;6.020;2022-11-03T13:34:50;16.80;90.10
43099;DHT22;28715;51.988;6.020;2022-11-03T13:37:16;16.80;90.10
43099;DHT22;28715;51.988;6.020;2022-11-03T13:39:41;16.80;90.20
43099;DHT22;28715;51.988;6.020;2022-11-03T13:42:07;16.80;89.80
43099;DHT22;28715;51.988;6.020;2022-11-03T13:44:33;16.80;89.00
43099;DHT22;28715;51.988;6.020;2022-11-03T13:46:58;16.70;89.60
43099;DHT22;28715;51.988;6.020;2022-11-03T13:49:24;16.70;89.90
43099;DHT22;28715;51.988;6.020;2022-11-03T13:51:50;16.70;90.00
43099;DHT22;28715;51.988;6.020;2022-11-03T13:54:15;16.70;90.10
43099;DHT22;28715;51.988;6.020;2022-11-03T13:56:41;16.70;90.10
43099;DHT22;28715;51.988;6.020;2022-11-03T13:59:06;16.80;90.20
43099;DHT22;28715;51.988;6.020;2022-11-03T14:01:32;16.80;90.00
43099;DHT22;28715;51.988;6.020;2022-11-03T14:03:58;16.80;90.10
43099;DHT22;28715;51.988;6.020;2022-11-03T14:06:23;16.70;89.90
43099;DHT22;28715;51.988;6.020;2022-11-03T14:08:49;16.70;90.30
43099;DHT22;28715;51.988;6.020;2022-11-03T14:11:14;16.70;90.60
43099;DHT22;28715;51.988;6.020;2022-11-03T14:13:58;16.60;90.90
43099;DHT22;28715;51.988;6.020;2022-11-03T14:16:24;16.60;91.00
43099;DHT22;28715;51.988;6.020;2022-11-03T14:18:50;16.50;91.10
43099;DHT22;28715;51.988;6.020;2022-11-03T14:21:15;16.50;91.10
43099;DHT22;28715;51.988;6.020;2022-11-03T14:23:41;16.40;91.00
43099;DHT22;28715;51.988;6.020;2022-11-03T14:26:06;16.40;91.10
43099;DHT22;28715;51.988;6.020;2022-11-03T14:28:32;16.30;91.20
43099;DHT22;28715;51.988;6.020;2022-11-03T14:30:57;16.20;91.30
43099;DHT22;28715;51.988;6.020;2022-11-03T14:33:25;16.10;91.30
43099;DHT22;28715;51.988;6.020;2022-11-03T14:35:51;16.10;91.50
43099;DHT22;28715;51.988;6.020;2022-11-03T14:38:17;16.10;91.50
43099;DHT22;28715;51.988;6.020;2022-11-03T14:40:42;16.10;91.60
43099;DHT22;28715;51.988;6.020;2022-11-03T14:43:26;16.00;91.60
43099;DHT22;28715;51.988;6.020;2022-11-03T14:45:52;15.90;91.70
43099;DHT22;28715;51.988;6.020;2022-11-03T14:48:18;15.90;91.70
43099;DHT22;28715;51.988;6.020;2022-11-03T14:50:43;15.90;91.70
43099;DHT22;28715;51.988;6.020;2022-11-03T14:53:09;15.90;91.70
43099;DHT22;28715;51.988;6.020;2022-11-03T14:55:34;15.80;91.80
43099;DHT22;28715;51.988;6.020;2022-11-03T14:58:00;15.80;92.00
43099;DHT22;28715;51.988;6.020;2022-11-03T15:00:26;15.80;92.20
43099;DHT22;28715;51.988;6.020;2022-11-03T15:02:51;15.70;92.60
43099;DHT22;28715;51.988;6.020;2022-11-03T15:05:17;15.60;92.90
43099;DHT22;28715;51.988;6.020;2022-11-03T15:08:01;15.60;93.00
43099;DHT22;28715;51.988;6.020;2022-11-03T15:10:26;15.50;93.30
43099;DHT22;28715;51.988;6.020;2022-11-03T15:12:52;15.40;93.60
43099;DHT22;28715;51.988;6.020;2022-11-03T15:15:17;15.30;94.00
43099;DHT22;28715;51.988;6.020;2022-11-03T15:17:43;15.20;94.50
43099;DHT22;28715;51.988;6.020;2022-11-03T15:20:08;15.10;94.90
43099;DHT22;28715;51.988;6.020;2022-11-03T15:22:34;15.10;95.20
43099;DHT22;28715;51.988;6.020;2022-11-03T15:25:00;15.00;95.50
43099;DHT22;28715;51.988;6.020;2022-11-03T15:27:25;15.00;96.00
43099;DHT22;28715;51.988;6.020;2022-11-03T15:29:51;15.00;95.90
43099;DHT22;28715;51.988;6.020;2022-11-03T15:32:16;14.90;96.10
43099;DHT22;28715;51.988;6.020;2022-11-03T15:34:42;14.90;96.30
43099;DHT22;28715;51.988;6.020;2022-11-03T15:37:07;14.80;96.50
43099;DHT22;28715;51.988;6.020;2022-11-03T15:39:33;14.80;96.60
43099;DHT22;28715;51.988;6.020;2022-11-03T15:41:58;14.70;96.80
43099;DHT22;28715;51.988;6.020;2022-11-03T15:44:25;14.70;97.00
43099;DHT22;28715;51.988;6.020;2022-11-03T15:46:50;14.70;97.20
43099;DHT22;28715;51.988;6.020;2022-11-03T15:49:16;14.70;97.40
43099;DHT22;28715;51.988;6.020;2022-11-03T15:51:41;14.60;97.60
43099;DHT22;28715;51.988;6.020;2022-11-03T15:54:07;14.60;97.70
43099;DHT22;28715;51.988;6.020;2022-11-03T15:56:33;14.60;98.20
43099;DHT22;28715;51.988;6.020;2022-11-03T15:58:58;14.50;98.00
43099;DHT22;28715;51.988;6.020;2022-11-03T16:01:24;14.50;98.20
43099;DHT22;28715;51.988;6.020;2022-11-03T16:03:50;14.40;98.30
43099;DHT22;28715;51.988;6.020;2022-11-03T16:06:16;14.30;98.30
43099;DHT22;28715;51.988;6.020;2022-11-03T16:09:38;14.30;98.40
43099;DHT22;28715;51.988;6.020;2022-11-03T16:12:28;14.20;98.60
43099;DHT22;28715;51.988;6.020;2022-11-03T16:15:10;14.10;98.70
43099;DHT22;28715;51.988;6.020;2022-11-03T16:17:38;14.10;98.80
43099;DHT22;28715;51.988;6.020;2022-11-03T16:20:11;14.10;98.90
43099;DHT22;28715;51.988;6.020;2022-11-03T16:22:37;14.00;98.90
43099;DHT22;28715;51.988;6.020;2022-11-03T16:25:03;14.00;98.90
43099;DHT22;28715;51.988;6.020;2022-11-03T16:27:28;14.00;99.00
43099;DHT22;28715;51.988;6.020;2022-11-03T16:29:54;14.00;99.10
43099;DHT22;28715;51.988;6.020;2022-11-03T16:32:20;14.00;99.10
43099;DHT22;28715;51.988;6.020;2022-11-03T16:34:46;14.00;99.10